Aérodrome :
LOGIN :

S'inscrire | Disclaimer

   EN    FR    IT 

 










Légende :    VFR   VFR Marginal   IFR   IFR Intensif   IFR Très Intensif
Visi : 
Plafond : 
>= 8 km
>= 3000ft
5 à 8 km
1000 à 3000 ft
1500m à 5 km
500 à 1000 ft
800 à 1500m
200 à 500 ft
< 800m
< 200 ft
Symboles :   Orages  Brouillard  Fortes neiges  Fortes précipitations  Vent > 20 kt
SIGMETs :   Divers  Orages  Givrage  Turbulence  Onde Orograph.  Cendres Volcan.







- Altitude de l'aérodrome : 844 ft
- Code IATA : OSR


LKMT - Ostrava-Mosnov

DERNIER METAR :
  • 270400Z 19002KT 6000 NSC 10/10 Q1021 NOSIG

METARs EXPIRÉS :
  • 270330Z 22004KT 3000 1200NE R22/0700 R04/P2000N BCFG BR NSC 09/08 Q1021 TEMPO 5000 BR
  • 270300Z 00000KT 0800 R22/P2000N R04/1100U BCFG NSC 11/10 Q1021 TEMPO 0400 FG
  • 270230Z VRB01KT 7000 R22/1300 R04/1100 MIFG NSC 10/10 Q1021 NOSIG
  • 270200Z 14002KT CAVOK 12/11 Q1021 NOSIG
  • 270130Z VRB01KT CAVOK 12/11 Q1021 NOSIG

TAF TAF LKMT
Valide du 27 à 00h jusqu'au 28 à 06h UTC


262300Z 2700/2806 VRB02KT CAVOK
TEMPO 2700/2704 8000 SHRA BKN040
PROB30
TEMPO 2701/2704 3000 BR
TEMPO 2706/2715 02008KT 9999 BKN047
Pas de NOTAMs connus pour ce terrain.



MET'MAP, la Météo Aéronautique d'un coup d'oeil ! - Copyright ORBIFLY Décembre 2007 - Disclaimer

ORBIFLY MET'MAP TEAM :

Programmation & Développement : Alexandra Zaïnal
Conception & Développement : Baudouin d'Aumeries
Co-Programmation & Développement : Marc-Olivier Méhu
Soutien technique & logistique : Manuel Goepfert

Contact : metmap@orbifly.com




SOURCES & CREDITS :

   NOAA